createdAt,value
2019-03-20T00:00:50.960Z,1.70
2019-03-20T00:03:18.077Z,1.63
2019-03-20T00:05:45.205Z,1.50
2019-03-20T00:08:11.958Z,2.37
2019-03-20T00:10:39.789Z,1.40
2019-03-20T00:13:06.712Z,1.30
2019-03-20T00:15:33.635Z,1.77
2019-03-20T00:18:04.596Z,1.57
2019-03-20T00:20:31.352Z,1.57
2019-03-20T00:22:58.083Z,1.70
2019-03-20T00:25:28.156Z,2.80
2019-03-20T00:27:55.000Z,2.10
2019-03-20T00:30:21.728Z,1.73
2019-03-20T00:32:48.562Z,1.70
2019-03-20T00:35:15.306Z,1.70
2019-03-20T00:37:42.301Z,1.73
2019-03-20T00:40:10.492Z,1.63
2019-03-20T00:42:37.284Z,1.87
2019-03-20T00:45:05.392Z,1.87
2019-03-20T00:47:32.377Z,1.77
2019-03-20T00:49:59.060Z,1.60
2019-03-20T00:52:25.996Z,1.73
2019-03-20T00:54:52.795Z,1.70
2019-03-20T00:57:19.609Z,1.57
2019-03-20T00:59:46.446Z,1.70
2019-03-20T01:02:13.533Z,1.70
2019-03-20T01:04:40.175Z,2.80
2019-03-20T01:07:06.964Z,1.70
2019-03-20T01:09:33.827Z,1.90
2019-03-20T01:12:00.438Z,1.70
2019-03-20T01:14:27.053Z,2.33
2019-03-20T01:16:53.776Z,2.23
2019-03-20T01:19:20.500Z,2.30
2019-03-20T01:21:47.271Z,2.03
2019-03-20T01:24:13.999Z,2.23
2019-03-20T01:26:44.034Z,2.27
2019-03-20T01:29:10.563Z,2.47
2019-03-20T01:31:37.327Z,2.20
2019-03-20T01:34:04.225Z,2.23
2019-03-20T01:36:31.349Z,2.13
2019-03-20T01:38:58.252Z,2.60
2019-03-20T01:41:25.230Z,2.10
2019-03-20T01:43:51.897Z,2.27
2019-03-20T01:46:18.884Z,2.00
2019-03-20T01:48:45.762Z,2.47
2019-03-20T01:51:16.265Z,2.40
2019-03-20T01:53:42.794Z,2.67
2019-03-20T01:56:09.636Z,2.40
2019-03-20T01:58:36.335Z,3.13
2019-03-20T02:01:03.143Z,2.50
2019-03-20T02:03:29.919Z,3.07
2019-03-20T02:05:56.364Z,2.27
2019-03-20T02:08:23.473Z,2.60
2019-03-20T02:10:50.168Z,2.33
2019-03-20T02:13:17.194Z,2.60
2019-03-20T02:15:44.405Z,2.03
2019-03-20T02:18:11.299Z,2.40
2019-03-20T02:20:38.342Z,2.47
2019-03-20T02:23:05.736Z,2.80
2019-03-20T02:25:33.374Z,2.80
2019-03-20T02:28:00.485Z,2.20
2019-03-20T02:30:27.545Z,2.33
2019-03-20T02:32:54.414Z,2.70
2019-03-20T02:35:20.837Z,2.93
2019-03-20T02:37:47.716Z,2.20
2019-03-20T02:40:14.814Z,2.60
2019-03-20T02:42:41.869Z,2.23
2019-03-20T02:45:11.023Z,2.50
2019-03-20T02:47:38.075Z,2.50
2019-03-20T02:50:06.154Z,3.00
2019-03-20T02:52:34.122Z,2.50
2019-03-20T02:55:00.889Z,2.33
2019-03-20T02:57:27.742Z,2.10
2019-03-20T02:59:54.717Z,2.53
2019-03-20T03:02:21.725Z,2.60
2019-03-20T03:04:52.448Z,2.10
2019-03-20T03:07:19.399Z,2.60
2019-03-20T03:09:46.453Z,2.80
2019-03-20T03:12:13.263Z,2.20
2019-03-20T03:14:39.991Z,2.63
2019-03-20T03:17:06.725Z,2.60
2019-03-20T03:19:33.900Z,2.37
2019-03-20T03:22:00.485Z,2.70
2019-03-20T03:24:31.463Z,2.10
2019-03-20T03:26:58.457Z,2.70
2019-03-20T03:29:25.298Z,2.33
2019-03-20T03:31:52.133Z,2.80
2019-03-20T03:34:18.994Z,2.87
2019-03-20T03:36:46.005Z,2.77
2019-03-20T03:39:12.919Z,2.20
2019-03-20T03:41:39.971Z,2.30
2019-03-20T03:44:06.873Z,2.40
2019-03-20T03:46:33.585Z,2.23
2019-03-20T03:49:00.630Z,2.00
2019-03-20T03:51:27.492Z,2.63
2019-03-20T03:53:54.294Z,2.30
2019-03-20T03:56:21.148Z,2.47
2019-03-20T03:58:48.076Z,2.40
2019-03-20T04:01:14.870Z,2.13
2019-03-20T04:03:41.867Z,2.50
2019-03-20T04:06:08.892Z,2.47
2019-03-20T04:08:35.858Z,2.40
2019-03-20T04:11:02.654Z,2.50
2019-03-20T04:13:29.494Z,2.57
2019-03-20T04:15:56.379Z,2.47
2019-03-20T04:18:23.289Z,2.53
2019-03-20T04:20:50.254Z,2.43
2019-03-20T04:23:17.192Z,2.67
2019-03-20T04:25:44.045Z,2.20
2019-03-20T04:28:11.043Z,2.33
2019-03-20T04:30:37.913Z,2.20
2019-03-20T04:33:04.449Z,2.30
2019-03-20T04:35:31.316Z,2.27
2019-03-20T04:37:58.233Z,2.23
2019-03-20T04:40:25.106Z,2.40
2019-03-20T04:42:52.020Z,2.40
2019-03-20T04:45:18.877Z,2.37
2019-03-20T04:47:45.597Z,2.27
2019-03-20T04:50:12.815Z,2.47
2019-03-20T04:52:39.676Z,2.20
2019-03-20T04:55:06.984Z,2.67
2019-03-20T04:57:33.905Z,2.47
2019-03-20T05:00:00.405Z,2.30
2019-03-20T05:02:27.423Z,2.40
2019-03-20T05:04:54.394Z,2.33
2019-03-20T05:07:21.297Z,2.77
2019-03-20T05:09:48.090Z,2.90
2019-03-20T05:12:14.906Z,3.00
2019-03-20T05:14:45.038Z,2.80
2019-03-20T05:17:11.818Z,2.63
2019-03-20T05:19:38.476Z,3.10
2019-03-20T05:22:05.076Z,3.07
2019-03-20T05:24:31.427Z,3.57
2019-03-20T05:26:58.114Z,2.80
2019-03-20T05:29:24.638Z,3.30
2019-03-20T05:31:51.304Z,4.80
2019-03-20T05:34:18.086Z,3.33
2019-03-20T05:36:44.837Z,8.43
2019-03-20T05:39:11.475Z,5.00
2019-03-20T05:41:38.160Z,10.10
2019-03-20T05:44:04.842Z,19.00
2019-03-20T05:46:31.503Z,999.90
2019-03-20T05:48:58.205Z,999.90
2019-03-20T05:51:24.880Z,999.90
2019-03-20T05:53:51.731Z,999.90
2019-03-20T05:56:18.108Z,999.90
2019-03-20T05:58:44.534Z,999.90
2019-03-20T06:01:11.175Z,999.90
2019-03-20T06:03:38.029Z,999.90
2019-03-20T06:06:04.598Z,999.90
2019-03-20T06:08:31.361Z,999.90
2019-03-20T06:10:57.866Z,999.90
2019-03-20T06:13:24.580Z,999.90
2019-03-20T06:15:51.096Z,999.90
2019-03-20T06:18:18.128Z,999.90
2019-03-20T06:20:46.103Z,25.60
2019-03-20T06:23:12.858Z,14.43
2019-03-20T06:25:39.538Z,5.43
2019-03-20T06:28:05.983Z,3.37
2019-03-20T06:30:32.323Z,3.00
2019-03-20T06:32:59.933Z,4.03
2019-03-20T06:35:29.251Z,3.83
2019-03-20T06:38:07.280Z,4.13
2019-03-20T06:40:39.327Z,3.37
2019-03-20T06:43:09.390Z,3.77
2019-03-20T06:48:38.866Z,2.90
2019-03-20T06:51:05.855Z,2.97
2019-03-20T06:53:35.170Z,3.10
2019-03-20T06:56:01.935Z,3.10
2019-03-20T06:58:28.903Z,2.93
2019-03-20T07:01:03.810Z,2.87
2019-03-20T07:03:51.077Z,3.33
2019-03-20T07:06:31.107Z,2.87
2019-03-20T07:08:57.061Z,3.13
2019-03-20T07:11:23.934Z,3.37
2019-03-20T07:13:50.960Z,3.33
2019-03-20T07:16:18.926Z,3.30
2019-03-20T07:18:45.860Z,2.77
2019-03-20T07:21:18.748Z,3.43
2019-03-20T07:23:46.362Z,3.23
2019-03-20T07:26:13.483Z,3.20
2019-03-20T07:28:42.290Z,3.37
2019-03-20T07:31:15.423Z,2.80
2019-03-20T07:33:43.815Z,2.97
2019-03-20T07:36:11.005Z,2.63
2019-03-20T07:38:38.101Z,3.33
2019-03-20T07:41:05.434Z,3.30
2019-03-20T07:43:41.655Z,2.90
2019-03-20T07:46:09.073Z,3.10
2019-03-20T07:48:37.818Z,3.60
2019-03-20T07:51:04.875Z,3.23
2019-03-20T07:53:31.969Z,3.93
2019-03-20T07:56:05.092Z,3.67
2019-03-20T07:58:31.982Z,3.50
2019-03-20T08:00:59.012Z,4.20
2019-03-20T08:03:25.909Z,3.50
2019-03-20T08:05:53.045Z,3.60
2019-03-20T08:08:21.959Z,4.10
2019-03-20T08:10:52.020Z,3.60
2019-03-20T08:13:21.444Z,3.50
2019-03-20T08:15:48.732Z,3.33
2019-03-20T08:18:17.669Z,3.30
2019-03-20T08:20:44.540Z,3.60
2019-03-20T08:23:11.581Z,3.50
2019-03-20T08:25:38.590Z,3.67
2019-03-20T08:28:06.799Z,4.00
2019-03-20T08:30:33.700Z,2.97
2019-03-20T08:33:00.663Z,2.67
2019-03-20T08:35:38.805Z,2.53
2019-03-20T08:38:05.448Z,2.77
2019-03-20T08:40:32.420Z,3.30
2019-03-20T08:45:44.008Z,2.40
2019-03-20T08:48:15.780Z,3.10
2019-03-20T08:50:42.467Z,2.10
2019-03-20T08:53:09.561Z,2.00
2019-03-20T08:55:36.555Z,1.80
2019-03-20T08:58:03.470Z,1.50
2019-03-20T09:00:30.644Z,1.50
2019-03-20T09:03:00.820Z,1.30
2019-03-20T09:08:28.740Z,1.70
2019-03-20T09:10:49.436Z,1.27
2019-03-20T09:13:16.395Z,1.77
2019-03-20T09:15:42.796Z,2.23
2019-03-20T09:18:09.583Z,2.10
2019-03-20T09:20:36.373Z,2.00
2019-03-20T09:23:03.241Z,2.03
2019-03-20T09:25:30.149Z,2.17
2019-03-20T09:27:56.924Z,2.03
2019-03-20T09:30:24.245Z,1.60
2019-03-20T09:32:51.178Z,1.30
2019-03-20T09:35:18.237Z,1.87
2019-03-20T09:37:51.958Z,1.70
2019-03-20T09:40:20.519Z,1.97
2019-03-20T09:42:47.533Z,1.70
2019-03-20T09:45:15.003Z,1.30
2019-03-20T09:47:41.894Z,1.10
2019-03-20T09:50:09.672Z,1.10
2019-03-20T09:52:36.477Z,1.17
2019-03-20T09:55:04.602Z,1.53
2019-03-20T09:57:31.320Z,1.30
2019-03-20T09:59:58.139Z,1.20
2019-03-20T10:02:24.978Z,1.30
2019-03-20T10:04:51.836Z,1.40
2019-03-20T10:07:18.551Z,1.50
2019-03-20T10:09:45.497Z,1.53
2019-03-20T10:12:12.313Z,1.20
2019-03-20T10:14:39.102Z,1.37
2019-03-20T10:17:06.032Z,1.50
2019-03-20T10:19:34.866Z,1.40
2019-03-20T10:22:01.810Z,1.70
2019-03-20T10:24:28.793Z,1.37
2019-03-20T10:26:55.800Z,1.30
2019-03-20T10:29:22.949Z,1.37
2019-03-20T10:31:50.065Z,1.60
2019-03-20T10:34:16.980Z,1.53
2019-03-20T10:36:43.980Z,1.30
2019-03-20T10:39:11.007Z,1.57
2019-03-20T10:41:38.120Z,1.47
2019-03-20T10:44:05.244Z,1.20
2019-03-20T10:46:32.362Z,1.13
2019-03-20T10:48:59.489Z,1.10
2019-03-20T10:51:26.458Z,1.13
2019-03-20T10:53:53.457Z,1.10
2019-03-20T10:56:20.630Z,1.30
2019-03-20T10:58:49.516Z,1.17
2019-03-20T11:01:19.301Z,0.97
2019-03-20T11:03:46.017Z,0.83
2019-03-20T11:06:13.132Z,1.20
2019-03-20T11:08:40.638Z,0.80
2019-03-20T11:11:07.462Z,1.20
2019-03-20T11:13:34.585Z,1.10
2019-03-20T11:16:01.739Z,1.67
2019-03-20T11:18:28.497Z,1.40
2019-03-20T11:20:55.651Z,1.20
2019-03-20T11:23:22.687Z,0.93
2019-03-20T11:25:49.701Z,1.23
2019-03-20T11:28:19.156Z,1.57
2019-03-20T11:30:46.018Z,1.13
2019-03-20T11:33:12.767Z,1.43
2019-03-20T11:35:42.618Z,1.50
2019-03-20T11:38:16.580Z,1.77
2019-03-20T11:40:48.262Z,1.10
2019-03-20T11:43:15.192Z,1.37
2019-03-20T11:45:42.315Z,1.67
2019-03-20T11:48:09.151Z,1.50
2019-03-20T11:50:42.868Z,1.50
2019-03-20T11:53:09.863Z,1.07
2019-03-20T11:55:37.152Z,1.47
2019-03-20T11:58:05.820Z,1.80
2019-03-20T12:00:32.839Z,1.97
2019-03-20T12:02:59.723Z,1.60
2019-03-20T12:05:26.498Z,1.87
2019-03-20T12:07:53.190Z,1.67
2019-03-20T12:10:27.730Z,1.50
2019-03-20T12:12:54.732Z,1.43
2019-03-20T12:15:21.899Z,1.23
2019-03-20T12:17:48.760Z,1.90
2019-03-20T12:20:17.427Z,1.90
2019-03-20T12:22:44.988Z,1.80
2019-03-20T12:25:26.913Z,1.43
2019-03-20T12:27:56.732Z,1.37
2019-03-20T12:30:31.107Z,1.27
2019-03-20T12:33:04.970Z,1.37
2019-03-20T12:35:38.709Z,1.30
2019-03-20T12:38:14.943Z,1.03
2019-03-20T12:40:37.764Z,1.33
2019-03-20T12:43:05.279Z,1.47
2019-03-20T12:45:35.332Z,1.20
2019-03-20T12:48:03.133Z,1.10
2019-03-20T12:50:30.066Z,1.00
2019-03-20T12:52:57.258Z,1.63
2019-03-20T12:55:24.323Z,1.37
2019-03-20T12:57:51.166Z,1.10
2019-03-20T13:00:19.944Z,0.97
2019-03-20T13:02:47.041Z,1.50
2019-03-20T13:05:15.859Z,1.20
2019-03-20T13:07:42.909Z,1.40
2019-03-20T13:10:15.491Z,1.23
2019-03-20T13:12:42.486Z,1.37
2019-03-20T13:15:11.290Z,1.30
2019-03-20T13:17:41.093Z,1.10
2019-03-20T13:20:09.146Z,1.10
2019-03-20T13:22:35.983Z,1.43
2019-03-20T13:25:03.766Z,1.30
2019-03-20T13:27:30.683Z,1.40
2019-03-20T13:29:57.675Z,1.37
2019-03-20T13:32:24.574Z,1.40
2019-03-20T13:34:56.834Z,1.67
2019-03-20T13:37:23.773Z,1.50
2019-03-20T13:39:50.686Z,1.30
2019-03-20T13:42:17.711Z,1.20
2019-03-20T13:44:44.989Z,1.67
2019-03-20T13:47:14.099Z,1.00
2019-03-20T13:49:40.904Z,1.17
2019-03-20T13:52:07.714Z,1.20
2019-03-20T13:54:34.464Z,1.20
2019-03-20T13:57:01.246Z,1.00
2019-03-20T13:59:28.050Z,1.40
2019-03-20T14:01:54.866Z,1.50
2019-03-20T14:04:21.709Z,1.10
2019-03-20T14:06:48.737Z,1.10
2019-03-20T14:09:15.482Z,1.10
2019-03-20T14:11:42.275Z,1.20
2019-03-20T14:14:09.021Z,1.50
2019-03-20T14:16:35.744Z,1.50
2019-03-20T14:19:02.716Z,1.33
2019-03-20T14:21:29.438Z,1.87
2019-03-20T14:23:56.273Z,1.37
2019-03-20T14:26:23.165Z,1.03
2019-03-20T14:28:50.074Z,0.97
2019-03-20T14:31:16.930Z,1.83
2019-03-20T14:33:43.682Z,1.17
2019-03-20T14:36:10.569Z,1.07
2019-03-20T14:38:37.459Z,1.10
2019-03-20T14:41:04.233Z,1.20
2019-03-20T14:43:30.826Z,1.07
2019-03-20T14:45:57.649Z,1.00
2019-03-20T14:48:24.573Z,1.20
2019-03-20T14:50:51.200Z,1.20
2019-03-20T14:53:18.038Z,1.20
2019-03-20T14:55:44.969Z,1.00
2019-03-20T14:58:11.688Z,1.60
2019-03-20T15:00:38.535Z,1.00
2019-03-20T15:03:05.470Z,1.10
2019-03-20T15:05:32.368Z,1.57
2019-03-20T15:07:59.276Z,1.20
2019-03-20T15:10:26.335Z,1.20
2019-03-20T15:12:53.525Z,1.47
2019-03-20T15:15:38.699Z,1.27
2019-03-20T15:18:07.667Z,1.00
2019-03-20T15:20:34.621Z,0.83
2019-03-20T15:23:04.860Z,0.90
2019-03-20T15:25:38.413Z,1.07
2019-03-20T15:28:05.403Z,1.30
2019-03-20T15:30:34.201Z,1.30
2019-03-20T15:33:01.517Z,1.10
2019-03-20T15:35:28.530Z,1.27
2019-03-20T15:37:55.529Z,1.30
2019-03-20T15:40:26.273Z,1.03
2019-03-20T15:42:53.564Z,1.13
2019-03-20T15:45:20.615Z,1.20
2019-03-20T15:47:49.451Z,1.43
2019-03-20T15:50:18.528Z,1.27
2019-03-20T15:52:52.525Z,1.13
2019-03-20T15:55:24.173Z,1.40
2019-03-20T15:57:53.001Z,1.40
2019-03-20T16:00:26.411Z,1.30
2019-03-20T16:03:16.055Z,1.00
2019-03-20T16:05:42.985Z,1.40
2019-03-20T16:08:10.271Z,1.57
2019-03-20T16:10:39.313Z,1.13
2019-03-20T16:13:06.374Z,1.10
2019-03-20T16:15:38.286Z,1.47
2019-03-20T16:18:06.646Z,1.03
2019-03-20T16:20:33.880Z,1.20
2019-03-20T16:23:01.420Z,1.10
2019-03-20T16:25:31.096Z,1.07
2019-03-20T16:28:10.270Z,1.33
2019-03-20T16:30:43.887Z,0.93
2019-03-20T16:33:25.526Z,1.10
2019-03-20T16:38:57.028Z,1.47
2019-03-20T16:41:24.135Z,1.07
2019-03-20T16:43:53.176Z,1.30
2019-03-20T16:46:22.214Z,1.13
2019-03-20T16:48:51.975Z,1.00
2019-03-20T16:51:20.844Z,1.50
2019-03-20T16:53:47.842Z,1.80
2019-03-20T16:56:14.777Z,1.30
2019-03-20T16:58:41.784Z,1.30
2019-03-20T17:01:09.112Z,1.57
2019-03-20T17:03:36.214Z,2.80
2019-03-20T17:06:05.420Z,2.57
2019-03-20T17:08:32.278Z,2.60
2019-03-20T17:10:59.265Z,2.00
2019-03-20T17:13:26.386Z,2.20
2019-03-20T17:15:55.182Z,2.10
2019-03-20T17:18:22.052Z,1.80
2019-03-20T17:20:49.205Z,1.27
2019-03-20T17:23:16.455Z,2.10
2019-03-20T17:25:43.426Z,1.60
2019-03-20T17:28:12.567Z,1.50
2019-03-20T17:30:40.319Z,1.50
2019-03-20T17:33:07.574Z,1.40
2019-03-20T17:35:37.482Z,1.80
2019-03-20T17:38:06.454Z,1.67
2019-03-20T17:40:35.406Z,1.82
2019-03-20T17:43:02.437Z,1.70
2019-03-20T17:45:29.611Z,1.97
2019-03-20T17:47:56.303Z,1.30
2019-03-20T17:50:25.445Z,1.40
2019-03-20T17:52:54.356Z,1.40
2019-03-20T17:55:21.262Z,1.27
2019-03-20T17:57:48.134Z,1.47
2019-03-20T18:00:19.874Z,1.73
2019-03-20T18:02:46.720Z,1.40
2019-03-20T18:05:13.594Z,1.60
2019-03-20T18:07:40.364Z,1.33
2019-03-20T18:10:07.313Z,1.87
2019-03-20T18:12:34.150Z,1.30
2019-03-20T18:15:01.005Z,1.10
2019-03-20T18:17:28.062Z,1.30
2019-03-20T18:19:54.909Z,1.43
2019-03-20T18:22:21.713Z,1.60
2019-03-20T18:24:48.588Z,1.40
2019-03-20T18:27:15.410Z,1.70
2019-03-20T18:29:43.354Z,1.93
2019-03-20T18:32:10.374Z,1.73
2019-03-20T18:34:36.809Z,1.50
2019-03-20T18:37:03.732Z,1.50
2019-03-20T18:39:30.712Z,1.57
2019-03-20T18:41:58.150Z,1.60
2019-03-20T18:44:25.387Z,1.77
2019-03-20T18:46:52.252Z,1.63
2019-03-20T18:49:18.793Z,1.50
2019-03-20T18:51:45.652Z,1.77
2019-03-20T18:54:12.390Z,1.57
2019-03-20T18:56:39.284Z,1.60
2019-03-20T18:59:05.840Z,1.70
2019-03-20T19:01:33.092Z,1.90
2019-03-20T19:04:05.706Z,1.40
2019-03-20T19:06:32.823Z,1.57
2019-03-20T19:08:59.840Z,2.57
2019-03-20T19:11:26.802Z,2.37
2019-03-20T19:13:53.323Z,2.10
2019-03-20T19:16:22.590Z,2.43
2019-03-20T19:18:49.624Z,3.02
2019-03-20T19:21:16.504Z,2.10
2019-03-20T19:23:43.329Z,1.93
2019-03-20T19:26:10.591Z,2.03
2019-03-20T19:28:37.503Z,2.03
2019-03-20T19:31:04.958Z,1.80
2019-03-20T19:33:31.850Z,2.07
2019-03-20T19:35:59.967Z,2.10
2019-03-20T19:38:34.439Z,1.63
2019-03-20T19:40:55.600Z,1.70
2019-03-20T19:43:22.944Z,1.97
2019-03-20T19:45:50.345Z,2.00
2019-03-20T19:48:17.499Z,2.23
2019-03-20T19:50:44.988Z,1.60
2019-03-20T19:53:11.773Z,1.90
2019-03-20T19:55:38.787Z,2.20
2019-03-20T19:58:08.330Z,2.37
2019-03-20T20:00:35.300Z,2.50
2019-03-20T20:03:02.050Z,2.00
2019-03-20T20:05:28.751Z,2.17
2019-03-20T20:07:55.745Z,2.00
2019-03-20T20:10:24.692Z,2.23
2019-03-20T20:12:51.462Z,1.87
2019-03-20T20:15:22.810Z,2.45
2019-03-20T20:17:49.991Z,2.20
2019-03-20T20:20:18.295Z,1.97
2019-03-20T20:22:45.181Z,3.02
2019-03-20T20:25:16.626Z,3.00
2019-03-20T20:27:46.074Z,2.60
2019-03-20T20:30:14.077Z,2.00
2019-03-20T20:39:02.484Z,2.70
2019-03-20T20:43:14.309Z,2.40
2019-03-20T20:44:11.200Z,1.90
2019-03-20T20:46:40.709Z,2.83
2019-03-20T20:49:07.124Z,2.73
2019-03-20T20:51:35.040Z,3.27
2019-03-20T20:54:01.694Z,2.50
2019-03-20T20:56:30.895Z,2.33
2019-03-20T20:58:59.587Z,3.25
2019-03-20T21:01:26.827Z,2.87
2019-03-20T21:04:17.672Z,2.93
2019-03-20T21:06:50.760Z,1.87
2019-03-20T21:09:33.225Z,2.90
2019-03-20T21:12:01.792Z,1.90
2019-03-20T21:14:34.132Z,1.83
2019-03-20T21:17:01.653Z,1.77
2019-03-20T21:19:33.972Z,1.80
2019-03-20T21:22:19.305Z,1.80
2019-03-20T21:24:48.450Z,2.27
2019-03-20T21:27:21.601Z,2.30
2019-03-20T21:30:06.874Z,1.90
2019-03-20T21:32:49.035Z,1.63
2019-03-20T21:35:47.124Z,1.87
2019-03-20T21:38:16.632Z,2.00
2019-03-20T21:40:57.518Z,1.70
2019-03-20T21:43:39.826Z,2.40
2019-03-20T21:46:08.189Z,3.10
2019-03-20T21:48:35.477Z,3.20
2019-03-20T21:51:16.224Z,2.80
2019-03-20T21:53:48.061Z,3.20
2019-03-20T21:56:18.990Z,3.10
2019-03-20T21:59:11.250Z,3.00
2019-03-20T22:01:50.298Z,2.70
2019-03-20T22:04:17.390Z,2.50
2019-03-20T22:06:46.652Z,2.57
2019-03-20T22:09:14.900Z,2.47
2019-03-20T22:11:55.476Z,2.47
2019-03-20T22:14:22.513Z,2.43
2019-03-20T22:17:08.007Z,2.20
2019-03-20T22:19:51.761Z,1.80
2019-03-20T22:22:37.353Z,1.63
2019-03-20T22:25:12.483Z,2.10
2019-03-20T22:27:44.147Z,1.87
2019-03-20T22:30:11.554Z,2.27
2019-03-20T22:32:58.529Z,1.70
2019-03-20T22:35:27.634Z,2.10
2019-03-20T22:38:05.278Z,1.93
2019-03-20T22:40:37.759Z,1.50
2019-03-20T22:43:17.626Z,1.83
2019-03-20T22:46:02.988Z,1.60
2019-03-20T22:48:43.997Z,1.90
2019-03-20T22:51:18.612Z,1.80
2019-03-20T22:54:13.047Z,1.70
2019-03-20T22:57:02.958Z,1.50
2019-03-20T22:59:29.704Z,1.90
2019-03-20T23:02:01.454Z,1.63
2019-03-20T23:04:30.319Z,1.90
2019-03-20T23:06:57.272Z,1.87
2019-03-20T23:09:24.111Z,1.70
2019-03-20T23:11:51.174Z,2.00
2019-03-20T23:14:17.730Z,2.37
2019-03-20T23:16:44.659Z,2.40
2019-03-20T23:19:11.435Z,2.80
2019-03-20T23:21:40.210Z,2.27
2019-03-20T23:24:07.123Z,2.40
2019-03-20T23:26:35.043Z,3.00
2019-03-20T23:29:01.956Z,2.63
2019-03-20T23:31:31.222Z,2.53
2019-03-20T23:33:57.824Z,2.60
2019-03-20T23:36:25.297Z,2.43
2019-03-20T23:38:52.481Z,2.43
2019-03-20T23:41:19.443Z,2.67
2019-03-20T23:43:52.859Z,2.47
2019-03-20T23:46:15.294Z,2.60
2019-03-20T23:48:49.315Z,2.13
2019-03-20T23:51:20.137Z,2.07
2019-03-20T23:53:51.492Z,2.13
2019-03-20T23:56:20.700Z,2.37
2019-03-20T23:58:49.463Z,2.10
